createdAt,value
2022-08-25T06:43:07.206Z,23.35
2022-08-25T06:45:44.479Z,23.34
2022-08-25T06:48:21.446Z,23.39
2022-08-25T06:50:58.488Z,23.43
2022-08-25T06:53:35.339Z,23.45
2022-08-25T06:56:13.018Z,23.45
2022-08-25T06:58:53.249Z,23.49
2022-08-25T07:01:32.517Z,23.52
2022-08-25T07:04:13.165Z,23.55
2022-08-25T07:06:50.895Z,23.54
2022-08-25T07:09:27.856Z,23.54
2022-08-25T07:12:06.468Z,23.54
2022-08-25T07:14:58.140Z,23.56
2022-08-25T07:17:40.989Z,23.59
2022-08-25T07:23:01.935Z,23.61
2022-08-25T07:25:39.796Z,23.65
2022-08-25T07:28:17.324Z,23.67
2022-08-25T07:31:02.042Z,23.71
2022-08-25T07:34:03.783Z,23.71
2022-08-25T07:36:40.364Z,23.75
2022-08-25T07:39:18.763Z,23.76
2022-08-25T07:41:58.995Z,23.77
2022-08-25T07:44:36.497Z,23.80
2022-08-25T07:47:19.814Z,23.86
2022-08-25T07:50:01.338Z,23.88
2022-08-25T07:52:53.505Z,23.92
2022-08-25T07:55:45.118Z,23.95
2022-08-25T07:58:24.891Z,23.97
2022-08-25T08:01:02.381Z,23.95
2022-08-25T08:03:51.016Z,23.97
2022-08-25T08:06:30.699Z,24.00
2022-08-25T08:09:08.441Z,24.02
2022-08-25T08:11:53.977Z,24.03
2022-08-25T08:14:31.670Z,24.05
2022-08-25T08:17:11.272Z,24.06
2022-08-25T08:19:51.408Z,24.04
2022-08-25T08:22:29.811Z,24.06
2022-08-25T08:25:10.616Z,24.07
2022-08-25T08:27:49.183Z,24.06
2022-08-25T08:30:27.331Z,24.06
2022-08-25T08:33:10.171Z,24.05
2022-08-25T08:35:59.169Z,24.07
2022-08-25T08:38:36.713Z,24.03
